createdAt,value
2019-04-06T00:01:09.926Z,97611.61
2019-04-06T00:03:39.715Z,97614.77
2019-04-06T00:06:09.629Z,97618.52
2019-04-06T00:08:39.265Z,97622.11
2019-04-06T00:11:09.096Z,97620.73
2019-04-06T00:13:38.782Z,97612.91
2019-04-06T00:16:08.327Z,97613.19
2019-04-06T00:18:38.167Z,97616.82
2019-04-06T00:21:07.662Z,97620.53
2019-04-06T00:23:37.199Z,97612.67
2019-04-06T00:26:06.609Z,97626.33
2019-04-06T00:28:36.442Z,97624.82
2019-04-06T00:31:22.838Z,97618.53
2019-04-06T00:33:52.473Z,97609.43
2019-04-06T00:36:22.065Z,97620.08
2019-04-06T00:38:51.872Z,97622.61
2019-04-06T00:41:21.598Z,97617.47
2019-04-06T00:43:51.171Z,97621.81
2019-04-06T00:46:20.918Z,97622.29
2019-04-06T00:48:50.524Z,97616.42
2019-04-06T00:51:20.087Z,97616.28
2019-04-06T00:53:49.875Z,97618.48
2019-04-06T00:56:19.590Z,97615.27
2019-04-06T00:58:49.230Z,97610.48
2019-04-06T01:01:19.394Z,97617.97
2019-04-06T01:03:48.879Z,97609.69
2019-04-06T01:06:18.730Z,97614.32
2019-04-06T01:08:48.334Z,97609.31
2019-04-06T01:11:18.284Z,97614.80
2019-04-06T01:13:48.051Z,97608.78
2019-04-06T01:16:17.546Z,97609.66
2019-04-06T01:18:47.097Z,97609.81
2019-04-06T01:21:16.807Z,97607.35
2019-04-06T01:23:46.301Z,97609.02
2019-04-06T01:26:16.038Z,97601.50
2019-04-06T01:28:45.659Z,97600.50
2019-04-06T01:31:15.166Z,97604.20
2019-04-06T01:33:44.872Z,97610.38
2019-04-06T01:36:14.449Z,97602.97
2019-04-06T01:38:44.012Z,97609.08
2019-04-06T01:41:13.778Z,97608.75
2019-04-06T01:43:43.363Z,97607.78
2019-04-06T01:46:12.810Z,97602.09
2019-04-06T01:48:42.494Z,97596.45
2019-04-06T01:51:12.203Z,97594.75
2019-04-06T01:53:41.592Z,97596.42
2019-04-06T01:56:18.366Z,97603.80
2019-04-06T01:58:42.662Z,97598.48
2019-04-06T02:01:18.509Z,97597.38
2019-04-06T02:03:48.084Z,97596.44
2019-04-06T02:06:17.914Z,97599.72
2019-04-06T02:08:47.720Z,97600.55
2019-04-06T02:11:17.332Z,97599.44
2019-04-06T02:13:47.057Z,97596.88
2019-04-06T02:16:16.825Z,97602.48
2019-04-06T02:18:46.459Z,97602.04
2019-04-06T02:21:15.858Z,97604.53
2019-04-06T02:23:45.743Z,97592.37
2019-04-06T02:26:15.590Z,97590.95
2019-04-06T02:28:44.979Z,97594.50
2019-04-06T02:31:23.568Z,97599.05
2019-04-06T02:34:14.651Z,97595.61
2019-04-06T02:36:55.450Z,97598.97
2019-04-06T02:39:51.062Z,97602.20
2019-04-06T02:42:42.965Z,97599.08
2019-04-06T02:45:13.065Z,97600.61
2019-04-06T02:47:42.548Z,97601.57
2019-04-06T02:50:12.188Z,97604.09
2019-04-06T02:52:41.701Z,97608.70
2019-04-06T02:55:11.094Z,97606.23
2019-04-06T02:57:40.669Z,97608.28
2019-04-06T03:00:11.679Z,97610.33
2019-04-06T03:02:41.542Z,97611.31
2019-04-06T03:05:11.436Z,97606.92
2019-04-06T03:07:41.146Z,97605.19
2019-04-06T03:10:11.372Z,97608.19
2019-04-06T03:12:41.345Z,97610.67
2019-04-06T03:15:11.503Z,97609.38
2019-04-06T03:17:40.902Z,97610.55
2019-04-06T03:20:11.140Z,97606.98
2019-04-06T03:22:40.937Z,97610.50
2019-04-06T03:25:11.097Z,97603.38
2019-04-06T03:27:40.885Z,97611.24
2019-04-06T03:30:10.617Z,97606.20
2019-04-06T03:32:40.452Z,97611.28
2019-04-06T03:35:10.174Z,97618.50
2019-04-06T03:37:39.662Z,97618.31
2019-04-06T03:40:09.526Z,97621.20
2019-04-06T03:42:38.911Z,97612.70
2019-04-06T03:45:08.986Z,97626.72
2019-04-06T03:47:38.767Z,97621.25
2019-04-06T03:50:09.134Z,97622.78
2019-04-06T03:52:38.777Z,97620.95
2019-04-06T03:55:09.363Z,97621.95
2019-04-06T03:57:39.268Z,97627.11
2019-04-06T04:00:09.151Z,97630.94
2019-04-06T04:02:38.720Z,97626.44
2019-04-06T04:05:08.675Z,97632.61
2019-04-06T04:07:38.381Z,97634.28
2019-04-06T04:10:08.233Z,97637.42
2019-04-06T04:12:37.903Z,97630.11
2019-04-06T04:15:07.799Z,97637.55
2019-04-06T04:17:37.522Z,97632.68
2019-04-06T04:20:07.659Z,97639.94
2019-04-06T04:22:37.106Z,97637.11
2019-04-06T04:25:07.116Z,97640.89
2019-04-06T04:27:40.824Z,97638.01
2019-04-06T04:30:10.535Z,97647.44
2019-04-06T04:32:39.929Z,97645.61
2019-04-06T04:35:09.623Z,97645.33
2019-04-06T04:37:39.157Z,97652.63
2019-04-06T04:40:08.674Z,97654.95
2019-04-06T04:42:38.370Z,97652.14
2019-04-06T04:45:08.168Z,97656.27
2019-04-06T04:47:38.135Z,97662.22
2019-04-06T04:50:08.352Z,97660.91
2019-04-06T04:52:37.849Z,97663.62
2019-04-06T04:55:07.974Z,97669.25
2019-04-06T04:57:40.956Z,97673.88
2019-04-06T05:00:09.342Z,97665.89
2019-04-06T05:02:39.048Z,97666.03
2019-04-06T05:05:09.710Z,97673.67
2019-04-06T05:07:39.485Z,97677.98
2019-04-06T05:10:10.102Z,97681.38
2019-04-06T05:12:39.617Z,97682.26
2019-04-06T05:15:11.261Z,97677.66
2019-04-06T05:17:41.071Z,97685.16
2019-04-06T05:20:11.422Z,97683.27
2019-04-06T05:22:40.928Z,97690.86
2019-04-06T05:25:11.017Z,97694.38
2019-04-06T05:27:51.223Z,97693.72
2019-04-06T05:30:12.539Z,97692.42
2019-04-06T05:32:41.940Z,97692.19
2019-04-06T05:35:11.686Z,97696.02
2019-04-06T05:37:41.216Z,97699.62
2019-04-06T05:40:11.212Z,97703.30
2019-04-06T05:42:40.638Z,97703.37
2019-04-06T05:45:10.594Z,97702.64
2019-04-06T05:47:40.278Z,97698.42
2019-04-06T05:50:10.382Z,97703.35
2019-04-06T05:52:40.222Z,97708.77
2019-04-06T05:55:10.421Z,97708.95
2019-04-06T05:57:39.913Z,97705.75
2019-04-06T06:00:10.551Z,97710.78
2019-04-06T06:02:41.787Z,97712.24
2019-04-06T06:05:11.807Z,97715.53
2019-04-06T06:07:41.525Z,97714.13
2019-04-06T06:10:11.191Z,97714.02
2019-04-06T06:12:41.262Z,97710.03
2019-04-06T06:15:11.112Z,97719.86
2019-04-06T06:17:40.545Z,97711.24
2019-04-06T06:20:10.332Z,97707.00
2019-04-06T06:22:39.996Z,97700.20
2019-04-06T06:25:09.973Z,97706.47
2019-04-06T06:27:39.364Z,97706.82
2019-04-06T06:30:09.710Z,97702.23
2019-04-06T06:32:39.409Z,97700.33
2019-04-06T06:35:09.105Z,97700.86
2019-04-06T06:37:38.837Z,97698.50
2019-04-06T06:40:08.834Z,97697.00
2019-04-06T06:42:38.481Z,97702.66
2019-04-06T06:45:08.662Z,97702.95
2019-04-06T06:47:38.429Z,97702.34
2019-04-06T06:50:08.720Z,97703.58
2019-04-06T06:52:38.319Z,97707.69
2019-04-06T06:55:09.323Z,97703.92
2019-04-06T06:57:38.903Z,97705.72
2019-04-06T07:00:09.094Z,97706.36
2019-04-06T07:02:38.789Z,97705.53
2019-04-06T07:05:08.900Z,97707.77
2019-04-06T07:07:38.619Z,97704.53
2019-04-06T07:10:08.825Z,97701.90
2019-04-06T07:12:38.247Z,97700.06
2019-04-06T07:15:08.369Z,97710.10
2019-04-06T07:17:38.182Z,97710.19
2019-04-06T07:20:08.211Z,97706.27
2019-04-06T07:22:37.907Z,97714.86
2019-04-06T07:25:08.263Z,97719.75
2019-04-06T07:27:38.078Z,97715.61
2019-04-06T07:30:07.807Z,97715.18
2019-04-06T07:32:37.253Z,97699.86
2019-04-06T07:35:07.359Z,97697.56
2019-04-06T07:37:36.770Z,97706.28
2019-04-06T07:40:07.876Z,97708.89
2019-04-06T07:42:37.446Z,97701.70
2019-04-06T07:45:07.240Z,97709.88
2019-04-06T07:47:37.033Z,97709.22
2019-04-06T07:50:07.722Z,97705.85
2019-04-06T07:52:37.386Z,97705.36
2019-04-06T07:55:07.587Z,97703.92
2019-04-06T07:57:37.006Z,97708.00
2019-04-06T08:00:07.192Z,97703.84
2019-04-06T08:02:37.035Z,97709.20
2019-04-06T08:05:06.855Z,97705.87
2019-04-06T08:07:36.302Z,97706.55
2019-04-06T08:10:06.879Z,97700.25
2019-04-06T08:12:36.678Z,97696.08
2019-04-06T08:15:07.054Z,97699.01
2019-04-06T08:17:36.943Z,97700.67
2019-04-06T08:20:07.544Z,97703.44
2019-04-06T08:22:37.382Z,97691.11
2019-04-06T08:25:07.498Z,97695.31
2019-04-06T08:27:37.323Z,97690.41
2019-04-06T08:30:08.050Z,97694.69
2019-04-06T08:32:37.951Z,97690.41
2019-04-06T08:35:07.852Z,97682.80
2019-04-06T08:37:37.432Z,97683.47
2019-04-06T08:40:07.606Z,97679.34
2019-04-06T08:42:37.083Z,97673.14
2019-04-06T08:45:07.217Z,97671.08
2019-04-06T08:47:36.735Z,97671.44
2019-04-06T08:50:07.571Z,97672.35
2019-04-06T08:52:37.361Z,97672.02
2019-04-06T08:55:07.601Z,97667.67
2019-04-06T08:57:37.462Z,97667.36
2019-04-06T09:00:07.574Z,97659.80
2019-04-06T09:02:37.090Z,97665.25
2019-04-06T09:05:06.974Z,97664.96
2019-04-06T09:07:36.642Z,97666.09
2019-04-06T09:10:07.015Z,97655.33
2019-04-06T09:12:36.595Z,97664.03
2019-04-06T09:15:06.402Z,97662.94
2019-04-06T09:17:35.893Z,97661.42
2019-04-06T09:20:07.043Z,97661.41
2019-04-06T09:22:36.782Z,97659.56
2019-04-06T09:25:07.148Z,97655.62
2019-04-06T09:27:36.554Z,97651.52
2019-04-06T09:30:06.571Z,97653.28
2019-04-06T09:32:36.395Z,97654.90
2019-04-06T09:35:06.787Z,97645.56
2019-04-06T09:37:36.492Z,97642.70
2019-04-06T09:40:07.229Z,97644.31
2019-04-06T09:42:36.969Z,97640.59
2019-04-06T09:45:30.223Z,97644.34
2019-04-06T09:48:18.835Z,97642.51
2019-04-06T09:51:25.832Z,97637.31
2019-04-06T09:54:06.654Z,97643.68
2019-04-06T09:56:55.931Z,97639.28
2019-04-06T09:59:43.282Z,97642.81
2019-04-06T10:02:32.073Z,97639.58
2019-04-06T10:05:20.774Z,97639.78
2019-04-06T10:08:08.185Z,97628.94
2019-04-06T10:10:56.573Z,97630.70
2019-04-06T10:13:37.741Z,97633.78
2019-04-06T10:16:22.410Z,97625.69
2019-04-06T10:18:58.081Z,97621.07
2019-04-06T10:21:52.957Z,97619.47
2019-04-06T10:24:33.095Z,97617.73
2019-04-06T10:27:27.660Z,97618.88
2019-04-06T10:30:15.239Z,97602.58
2019-04-06T10:32:57.600Z,97610.75
2019-04-06T10:35:52.332Z,97607.88
2019-04-06T10:38:59.111Z,97599.72
2019-04-06T10:41:43.315Z,97597.22
2019-04-06T10:44:35.047Z,97596.74
2019-04-06T10:47:23.210Z,97597.81
2019-04-06T10:50:09.929Z,97585.61
2019-04-06T10:52:57.340Z,97581.00
2019-04-06T10:55:54.800Z,97580.05
2019-04-06T10:58:44.643Z,97582.70
2019-04-06T11:01:30.315Z,97578.21
2019-04-06T11:04:24.915Z,97582.16
2019-04-06T11:07:22.539Z,97575.91
2019-04-06T11:10:10.148Z,97576.25
2019-04-06T11:12:57.551Z,97568.77
2019-04-06T11:15:35.794Z,97557.60
2019-04-06T11:18:23.737Z,97551.62
2019-04-06T11:21:11.151Z,97549.34
2019-04-06T11:23:58.348Z,97549.24
2019-04-06T11:26:37.691Z,97547.93
2019-04-06T11:29:20.209Z,97537.97
2019-04-06T11:32:12.076Z,97537.53
2019-04-06T11:35:00.574Z,97542.04
2019-04-06T11:37:48.072Z,97543.33
2019-04-06T11:40:36.767Z,97530.10
2019-04-06T11:43:18.770Z,97525.81
2019-04-06T11:46:10.538Z,97524.63
2019-04-06T11:48:49.933Z,97518.69
2019-04-06T11:51:37.599Z,97515.19
2019-04-06T11:54:38.572Z,97510.09
2019-04-06T11:57:23.007Z,97503.05
2019-04-06T12:00:10.599Z,97503.64
2019-04-06T12:03:11.670Z,97497.45
2019-04-06T12:05:52.232Z,97498.23
2019-04-06T12:08:49.925Z,97493.45
2019-04-06T12:11:47.915Z,97488.22
2019-04-06T12:14:36.525Z,97475.36
2019-04-06T12:17:15.498Z,97485.14
2019-04-06T12:20:02.572Z,97479.39
2019-04-06T12:22:45.146Z,97476.89
2019-04-06T12:25:37.039Z,97470.66
2019-04-06T12:28:37.752Z,97465.66
2019-04-06T12:31:32.127Z,97464.23
2019-04-06T12:34:19.611Z,97460.60
2019-04-06T12:37:04.875Z,97451.96
2019-04-06T12:39:56.934Z,97450.20
2019-04-06T12:42:45.596Z,97446.33
2019-04-06T12:45:52.442Z,97438.83
2019-04-06T12:48:53.223Z,97429.05
2019-04-06T12:51:54.345Z,97432.61
2019-04-06T12:54:34.271Z,97430.88
2019-04-06T12:57:16.709Z,97424.17
2019-04-06T12:59:57.561Z,97423.53
2019-04-06T13:02:46.217Z,97407.77
2019-04-06T13:05:43.875Z,97417.69
2019-04-06T13:08:28.140Z,97413.94
2019-04-06T13:11:23.038Z,97411.82
2019-04-06T13:14:23.904Z,97407.80
2019-04-06T13:17:21.440Z,97400.39
2019-04-06T13:20:08.733Z,97395.00
2019-04-06T13:23:07.002Z,97395.48
2019-04-06T13:25:56.851Z,97393.61
2019-04-06T13:28:46.004Z,97386.67
2019-04-06T13:31:38.302Z,97383.02
2019-04-06T13:34:22.569Z,97384.20
2019-04-06T13:37:17.084Z,97384.06
2019-04-06T13:40:11.736Z,97384.44
2019-04-06T13:43:03.332Z,97380.15
2019-04-06T13:45:50.767Z,97385.33
2019-04-06T13:48:30.729Z,97384.13
2019-04-06T13:51:13.559Z,97369.73
2019-04-06T13:54:14.517Z,97383.05
2019-04-06T13:57:06.321Z,97373.03
2019-04-06T14:00:10.053Z,97380.16
2019-04-06T14:02:55.823Z,97376.36
2019-04-06T14:05:50.294Z,97379.92
2019-04-06T14:08:42.092Z,97383.86
2019-04-06T14:11:29.192Z,97376.92
2019-04-06T14:14:29.016Z,97385.35
2019-04-06T14:17:13.723Z,97378.97
2019-04-06T14:20:08.377Z,97371.69
2019-04-06T14:22:55.565Z,97377.05
2019-04-06T14:25:39.239Z,97377.15
2019-04-06T14:28:16.701Z,97375.02
2019-04-06T14:31:05.787Z,97374.09
2019-04-06T14:34:04.104Z,97370.63
2019-04-06T14:36:55.609Z,97378.41
2019-04-06T14:39:43.307Z,97374.51
2019-04-06T14:42:20.040Z,97370.92
2019-04-06T14:45:14.693Z,97379.59
2019-04-06T14:48:03.804Z,97378.95
2019-04-06T14:50:50.028Z,97372.05
2019-04-06T14:53:49.106Z,97380.06
2019-04-06T14:56:25.765Z,97380.38
2019-04-06T14:59:24.023Z,97379.09
2019-04-06T15:02:25.185Z,97377.74
2019-04-06T15:05:16.770Z,97375.53
2019-04-06T15:07:53.203Z,97373.76
2019-04-06T15:10:47.827Z,97373.16
2019-04-06T15:13:45.354Z,97382.06
2019-04-06T15:16:21.268Z,97380.73
2019-04-06T15:19:04.042Z,97384.03
2019-04-06T15:21:56.335Z,97383.55
2019-04-06T15:24:45.411Z,97384.24
2019-04-06T15:27:39.987Z,97378.81
2019-04-06T15:30:35.255Z,97382.78
2019-04-06T15:33:24.370Z,97379.81
2019-04-06T15:36:22.076Z,97381.40
2019-04-06T15:39:00.429Z,97383.27
2019-04-06T15:41:55.772Z,97382.59
2019-04-06T15:44:47.021Z,97385.69
2019-04-06T15:47:36.414Z,97385.45
2019-04-06T15:50:34.199Z,97388.94
2019-04-06T15:53:28.878Z,97391.00
2019-04-06T15:56:17.565Z,97389.19
2019-04-06T15:59:05.978Z,97388.36
2019-04-06T16:02:06.771Z,97387.96
2019-04-06T16:05:01.945Z,97383.15
2019-04-06T16:07:56.294Z,97384.53
2019-04-06T16:10:56.028Z,97380.44
2019-04-06T16:13:50.212Z,97383.16
2019-04-06T16:16:38.109Z,97389.42
2019-04-06T16:19:29.599Z,97389.14
2019-04-06T16:22:27.631Z,97385.92
2019-04-06T16:25:16.200Z,97389.70
2019-04-06T16:28:24.400Z,97396.77
2019-04-06T16:31:04.158Z,97394.63
2019-04-06T16:33:48.815Z,97390.78
2019-04-06T16:36:46.863Z,97395.55
2019-04-06T16:39:50.924Z,97395.73
2019-04-06T16:42:51.739Z,97395.92
2019-04-06T16:45:38.908Z,97400.25
2019-04-06T16:48:27.786Z,97398.59
2019-04-06T16:51:25.058Z,97404.54
2019-04-06T16:54:13.778Z,97398.56
2019-04-06T16:56:51.227Z,97402.37
2019-04-06T16:59:36.405Z,97398.00
2019-04-06T17:02:25.329Z,97405.16
2019-04-06T17:05:20.207Z,97400.97
2019-04-06T17:08:16.837Z,97401.45
2019-04-06T17:11:01.820Z,97401.79
2019-04-06T17:13:56.241Z,97400.45
2019-04-06T17:16:51.287Z,97396.98
2019-04-06T17:19:39.079Z,97397.23
2019-04-06T17:22:46.167Z,97401.56
2019-04-06T17:25:31.530Z,97422.02
2019-04-06T17:28:17.000Z,97424.95
2019-04-06T17:30:58.804Z,97418.84
2019-04-06T17:33:56.362Z,97430.92
2019-04-06T17:36:48.319Z,97427.98
2019-04-06T17:39:34.557Z,97426.66
2019-04-06T17:42:21.700Z,97430.30
2019-04-06T17:45:25.454Z,97427.66
2019-04-06T17:48:20.322Z,97443.17
2019-04-06T17:51:08.155Z,97434.73
2019-04-06T17:54:06.229Z,97436.34
2019-04-06T17:57:13.175Z,97437.45
2019-04-06T17:59:56.439Z,97441.54
2019-04-06T18:02:48.676Z,97440.30
2019-04-06T18:05:26.079Z,97440.22
2019-04-06T18:08:24.618Z,97441.00
2019-04-06T18:11:13.919Z,97443.72
2019-04-06T18:13:48.267Z,97454.17
2019-04-06T18:16:20.860Z,97456.02
2019-04-06T18:18:51.091Z,97453.47
2019-04-06T18:21:21.006Z,97447.05
2019-04-06T18:23:50.936Z,97438.37
2019-04-06T18:26:21.423Z,97449.44
2019-04-06T18:28:51.576Z,97453.10
2019-04-06T18:31:40.437Z,97450.92
2019-04-06T18:34:10.292Z,97452.04
2019-04-06T18:37:04.875Z,97468.28
2019-04-06T18:39:34.573Z,97475.70
2019-04-06T18:42:04.457Z,97473.48
2019-04-06T18:44:34.455Z,97470.06
2019-04-06T18:47:04.142Z,97467.41
2019-04-06T18:49:34.218Z,97468.90
2019-04-06T18:52:04.141Z,97473.76
2019-04-06T18:54:33.713Z,97467.72
2019-04-06T18:57:03.211Z,97472.77
2019-04-06T18:59:32.687Z,97472.44
2019-04-06T19:02:02.300Z,97472.69
2019-04-06T19:04:31.848Z,97472.44
2019-04-06T19:07:01.451Z,97474.17
2019-04-06T19:09:31.545Z,97481.22
2019-04-06T19:12:01.302Z,97479.81
2019-04-06T19:14:30.975Z,97480.52
2019-04-06T19:17:00.951Z,97481.30
2019-04-06T19:19:30.813Z,97483.52
2019-04-06T19:22:00.382Z,97486.14
2019-04-06T19:24:30.300Z,97483.38
2019-04-06T19:27:00.387Z,97487.69
2019-04-06T19:29:29.889Z,97482.17
2019-04-06T19:31:59.496Z,97484.27
2019-04-06T19:34:29.805Z,97490.95
2019-04-06T19:37:00.211Z,97490.93
2019-04-06T19:39:29.993Z,97493.47
2019-04-06T19:41:59.581Z,97497.30
2019-04-06T19:44:29.779Z,97498.83
2019-04-06T19:46:59.743Z,97493.63
2019-04-06T19:49:29.646Z,97494.56
2019-04-06T19:51:59.527Z,97493.15
2019-04-06T19:54:29.233Z,97499.24
2019-04-06T19:57:00.525Z,97501.67
2019-04-06T19:59:29.931Z,97493.73
2019-04-06T20:01:59.807Z,97506.03
2019-04-06T20:04:29.739Z,97509.00
2019-04-06T20:06:59.444Z,97499.95
2019-04-06T20:09:29.214Z,97503.52
2019-04-06T20:12:06.106Z,97507.73
2019-04-06T20:14:30.436Z,97502.44
2019-04-06T20:17:00.120Z,97507.66
2019-04-06T20:19:30.088Z,97508.97
2019-04-06T20:21:59.965Z,97516.95
2019-04-06T20:24:30.049Z,97513.48
2019-04-06T20:26:59.778Z,97514.53
2019-04-06T20:29:29.528Z,97519.27
2019-04-06T20:31:59.126Z,97517.84
2019-04-06T20:34:29.373Z,97519.16
2019-04-06T20:36:59.302Z,97520.27
2019-04-06T20:39:29.144Z,97523.14
2019-04-06T20:41:58.838Z,97525.70
2019-04-06T20:44:28.445Z,97526.19
2019-04-06T20:46:58.410Z,97526.05
2019-04-06T20:49:28.202Z,97529.84
2019-04-06T20:51:59.027Z,97523.52
2019-04-06T20:54:29.763Z,97526.63
2019-04-06T20:56:59.678Z,97522.64
2019-04-06T20:59:29.484Z,97522.47
2019-04-06T21:01:58.971Z,97527.27
2019-04-06T21:04:29.148Z,97520.02
2019-04-06T21:06:59.080Z,97522.53
2019-04-06T21:09:28.606Z,97515.16
2019-04-06T21:11:58.319Z,97520.99
2019-04-06T21:14:28.289Z,97521.59
2019-04-06T21:16:57.895Z,97519.62
2019-04-06T21:19:28.159Z,97516.34
2019-04-06T21:21:59.497Z,97516.34
2019-04-06T21:24:29.339Z,97520.80
2019-04-06T21:26:58.858Z,97515.56
2019-04-06T21:29:28.339Z,97517.05
2019-04-06T21:31:58.489Z,97521.51
2019-04-06T21:34:28.191Z,97519.43
2019-04-06T21:36:57.643Z,97526.41
2019-04-06T21:39:27.910Z,97526.64
2019-04-06T21:41:58.103Z,97526.50
2019-04-06T21:44:27.945Z,97523.28
2019-04-06T21:46:57.756Z,97532.29
2019-04-06T21:49:27.966Z,97523.69
2019-04-06T21:51:57.585Z,97520.28
2019-04-06T21:54:27.118Z,97525.31
2019-04-06T21:56:57.169Z,97524.94
2019-04-06T21:59:27.009Z,97529.12
2019-04-06T22:01:56.956Z,97525.36
2019-04-06T22:04:27.560Z,97523.34
2019-04-06T22:06:58.278Z,97530.03
2019-04-06T22:09:27.897Z,97524.97
2019-04-06T22:11:57.387Z,97521.46
2019-04-06T22:14:27.114Z,97522.58
2019-04-06T22:16:57.237Z,97523.47
2019-04-06T22:19:26.861Z,97522.86
2019-04-06T22:21:56.556Z,97521.09
2019-04-06T22:24:26.402Z,97522.86
2019-04-06T22:26:56.222Z,97523.61
2019-04-06T22:29:25.650Z,97522.06
2019-04-06T22:31:55.304Z,97516.58
2019-04-06T22:34:35.388Z,97520.98
2019-04-06T22:36:56.024Z,97518.58
2019-04-06T22:39:26.028Z,97520.81
2019-04-06T22:41:55.870Z,97522.18
2019-04-06T22:44:25.514Z,97520.06
2019-04-06T22:46:55.318Z,97515.33
2019-04-06T22:49:25.084Z,97524.73
2019-04-06T22:51:54.981Z,97520.86
2019-04-06T22:54:24.777Z,97519.05
2019-04-06T22:56:54.531Z,97518.25
2019-04-06T22:59:24.336Z,97519.38
2019-04-06T23:01:53.822Z,97524.33
2019-04-06T23:04:48.551Z,97529.05
2019-04-06T23:07:18.992Z,97522.74
2019-04-06T23:09:48.670Z,97523.42
2019-04-06T23:12:18.407Z,97518.36
2019-04-06T23:14:48.109Z,97512.35
2019-04-06T23:17:18.005Z,97515.48
2019-04-06T23:19:47.584Z,97511.46
2019-04-06T23:22:17.075Z,97509.75
2019-04-06T23:24:46.910Z,97508.37
2019-04-06T23:27:16.287Z,97509.72
2019-04-06T23:29:45.757Z,97501.59
2019-04-06T23:32:15.893Z,97497.38
2019-04-06T23:34:57.390Z,97495.80
2019-04-06T23:37:17.021Z,97494.05
2019-04-06T23:39:46.883Z,97487.55
2019-04-06T23:42:16.674Z,97483.78
2019-04-06T23:44:46.511Z,97481.38
2019-04-06T23:47:16.525Z,97481.06
2019-04-06T23:49:46.242Z,97475.08
2019-04-06T23:52:15.886Z,97476.67
2019-04-06T23:54:45.476Z,97478.85
2019-04-06T23:57:15.299Z,97474.62
2019-04-06T23:59:45.091Z,97475.94
